createdAt,value
2024-02-08T00:03:12.039Z,4.78
2024-02-08T00:08:13.959Z,4.62
2024-02-08T00:13:15.659Z,4.70
2024-02-08T00:18:19.593Z,4.62
2024-02-08T00:23:21.438Z,4.63
2024-02-08T00:28:23.400Z,4.64
2024-02-08T00:33:26.547Z,4.62
2024-02-08T00:38:31.349Z,4.69
2024-02-08T00:43:33.102Z,4.54
2024-02-08T00:48:34.787Z,4.53
2024-02-08T00:53:36.590Z,4.48
2024-02-08T00:58:38.228Z,4.64
2024-02-08T01:03:39.949Z,4.56
2024-02-08T01:08:41.585Z,4.55
2024-02-08T01:13:43.271Z,4.56
2024-02-08T01:18:45.052Z,4.45
2024-02-08T01:23:47.862Z,4.47
2024-02-08T01:28:49.561Z,4.40
2024-02-08T01:33:52.077Z,4.27
2024-02-08T01:38:53.803Z,4.31
2024-02-08T01:44:04.289Z,4.33
2024-02-08T01:49:12.394Z,4.30
2024-02-08T01:54:14.148Z,4.32
2024-02-08T01:59:20.924Z,4.32
2024-02-08T02:04:23.545Z,4.19
2024-02-08T02:09:26.430Z,4.21
2024-02-08T02:14:30.832Z,3.90
2024-02-08T02:19:33.080Z,3.96
2024-02-08T02:24:37.508Z,4.13
2024-02-08T02:29:40.367Z,4.16
2024-02-08T02:34:43.756Z,4.14
2024-02-08T02:39:48.831Z,4.17
2024-02-08T02:44:50.451Z,4.19
2024-02-08T02:49:56.251Z,3.96
2024-02-08T02:54:57.909Z,4.12
2024-02-08T03:00:00.814Z,4.13
2024-02-08T03:05:02.507Z,3.93
2024-02-08T03:10:04.344Z,3.82
2024-02-08T03:15:10.280Z,4.00
2024-02-08T03:20:18.050Z,3.95
2024-02-08T03:25:22.999Z,3.93
2024-02-08T03:30:24.803Z,3.77
2024-02-08T03:35:29.285Z,4.05
2024-02-08T03:40:34.464Z,3.92
2024-02-08T03:45:44.691Z,3.85
2024-02-08T03:50:51.642Z,3.65
2024-02-08T03:55:53.324Z,3.81
2024-02-08T04:00:55.706Z,3.85
2024-02-08T04:06:01.001Z,3.93
2024-02-08T04:11:02.792Z,3.89
2024-02-08T04:16:22.827Z,3.95
2024-02-08T04:21:42.951Z,3.96
2024-02-08T04:27:23.789Z,3.94
2024-02-08T04:32:43.810Z,3.84
2024-02-08T04:38:03.897Z,4.02
2024-02-08T04:43:23.835Z,3.98
2024-02-08T04:48:44.338Z,3.98
2024-02-08T04:53:45.975Z,3.82
2024-02-08T04:59:08.355Z,3.79
2024-02-08T05:04:09.386Z,3.84
2024-02-08T05:09:16.898Z,3.95
2024-02-08T05:14:23.612Z,4.07
2024-02-08T05:19:27.179Z,4.10
2024-02-08T05:24:31.450Z,3.92
2024-02-08T05:29:33.825Z,4.17
2024-02-08T05:34:38.115Z,4.16
2024-02-08T05:39:39.952Z,4.20
2024-02-08T05:44:42.309Z,4.13
2024-02-08T05:49:50.693Z,4.15
2024-02-08T05:54:53.480Z,4.15
2024-02-08T06:00:01.493Z,4.06
2024-02-08T06:05:19.392Z,4.17
2024-02-08T06:10:24.139Z,4.22
2024-02-08T06:15:34.065Z,4.24
2024-02-08T06:20:42.566Z,4.31
2024-02-08T06:26:02.401Z,4.37
2024-02-08T06:31:07.373Z,4.44
2024-02-08T06:36:09.985Z,4.41
2024-02-08T06:41:24.783Z,4.44
2024-02-08T06:46:49.506Z,4.46
2024-02-08T06:52:10.055Z,4.46
2024-02-08T06:57:30.802Z,4.49
2024-02-08T07:03:07.842Z,4.52
2024-02-08T07:08:27.847Z,4.54
2024-02-08T07:13:48.237Z,4.55
2024-02-08T07:19:09.001Z,4.65
2024-02-08T07:24:30.865Z,4.53
2024-02-08T07:29:50.911Z,4.56
2024-02-08T07:35:11.341Z,4.59
2024-02-08T07:40:24.701Z,4.57
2024-02-08T07:45:29.332Z,4.56
2024-02-08T07:50:37.235Z,4.57
2024-02-08T07:55:39.164Z,4.63
2024-02-08T08:00:41.158Z,4.69
2024-02-08T08:05:45.577Z,4.70
2024-02-08T08:10:49.018Z,4.82
2024-02-08T08:16:10.734Z,4.84
2024-02-08T08:21:27.148Z,4.83
2024-02-08T08:26:40.450Z,4.81
2024-02-08T08:31:52.697Z,4.94
2024-02-08T08:37:05.096Z,4.97
2024-02-08T08:42:07.326Z,4.97
2024-02-08T08:47:09.068Z,4.98
2024-02-08T08:52:24.657Z,5.03
2024-02-08T08:57:26.709Z,5.09
2024-02-08T09:02:30.792Z,5.01
2024-02-08T09:07:32.716Z,5.23
2024-02-08T09:12:41.029Z,5.40
2024-02-08T09:17:53.053Z,5.34
2024-02-08T09:22:58.460Z,5.39
2024-02-08T09:28:16.131Z,5.42
2024-02-08T09:33:31.239Z,5.40
2024-02-08T09:38:46.247Z,5.37
2024-02-08T09:43:50.007Z,5.35
2024-02-08T09:48:53.246Z,5.40
2024-02-08T09:53:55.710Z,5.43
2024-02-08T09:59:10.290Z,5.41
2024-02-08T10:04:18.825Z,5.41
2024-02-08T10:09:41.327Z,5.54
2024-02-08T10:14:43.501Z,5.58
2024-02-08T10:20:14.261Z,5.58
2024-02-08T10:25:34.838Z,5.57
2024-02-08T10:30:45.531Z,5.51
2024-02-08T10:35:48.995Z,5.63
2024-02-08T10:40:57.149Z,5.65
2024-02-08T10:46:05.249Z,5.66
2024-02-08T10:51:13.201Z,5.71
2024-02-08T10:56:18.308Z,5.72
2024-02-08T11:01:39.328Z,5.73
2024-02-08T11:06:55.848Z,5.86
2024-02-08T11:12:05.331Z,5.89
2024-02-08T11:17:12.441Z,6.06
2024-02-08T11:22:26.096Z,6.02
2024-02-08T11:27:29.072Z,5.94
2024-02-08T11:32:32.425Z,5.84
2024-02-08T11:37:39.179Z,5.96
2024-02-08T11:42:43.240Z,6.04
2024-02-08T11:47:50.300Z,5.96
2024-02-08T11:53:00.302Z,6.13
2024-02-08T11:58:07.130Z,6.09
2024-02-08T12:03:11.383Z,6.16
2024-02-08T12:08:14.539Z,6.22
2024-02-08T12:13:17.436Z,6.27
2024-02-08T12:18:20.117Z,5.87
2024-02-08T12:23:31.032Z,6.29
2024-02-08T12:28:35.712Z,6.35
2024-02-08T12:33:37.641Z,6.37
2024-02-08T12:38:39.539Z,6.44
2024-02-08T12:43:43.954Z,6.43
2024-02-08T12:48:48.384Z,6.28
2024-02-08T12:54:03.289Z,6.28
2024-02-08T12:59:05.492Z,6.33
2024-02-08T13:04:07.820Z,6.42
2024-02-08T13:09:38.876Z,6.49
2024-02-08T13:14:43.967Z,6.34
2024-02-08T13:19:57.342Z,6.36
2024-02-08T13:25:00.094Z,6.29
2024-02-08T13:30:02.221Z,6.19
2024-02-08T13:35:04.333Z,6.18
2024-02-08T13:40:08.887Z,6.19
2024-02-08T13:45:13.117Z,6.22
2024-02-08T13:50:14.797Z,6.15
2024-02-08T13:55:19.677Z,6.14
2024-02-08T14:00:23.458Z,6.13
2024-02-08T14:05:26.846Z,6.06
2024-02-08T14:10:29.517Z,6.03
2024-02-08T14:15:32.069Z,6.02
2024-02-08T14:20:44.852Z,6.05
2024-02-08T14:25:59.485Z,6.04
2024-02-08T14:31:01.836Z,5.96
2024-02-08T14:36:08.182Z,5.93
2024-02-08T14:41:28.953Z,5.98
2024-02-08T14:46:30.760Z,6.03
2024-02-08T14:51:37.413Z,5.90
2024-02-08T14:56:42.281Z,5.89
2024-02-08T15:01:53.386Z,5.92
2024-02-08T15:07:07.503Z,5.77
2024-02-08T15:12:28.530Z,5.80
2024-02-08T15:17:31.012Z,5.81
2024-02-08T15:22:32.722Z,5.83
2024-02-08T15:27:55.802Z,5.78
2024-02-08T15:32:57.455Z,5.63
2024-02-08T15:38:17.681Z,5.68
2024-02-08T15:43:19.358Z,5.68
2024-02-08T15:48:33.129Z,5.69
2024-02-08T15:53:50.580Z,5.60
2024-02-08T15:59:13.895Z,5.56
2024-02-08T16:04:42.587Z,5.63
2024-02-08T16:09:51.203Z,5.54
2024-02-08T16:15:09.537Z,5.47
2024-02-08T16:20:17.988Z,5.48
2024-02-08T16:25:41.525Z,5.27
2024-02-08T16:31:01.729Z,5.32
2024-02-08T16:36:23.160Z,5.31
2024-02-08T16:41:32.067Z,5.37
2024-02-08T16:46:37.250Z,5.25
2024-02-08T16:51:39.508Z,5.22
2024-02-08T16:56:43.046Z,5.18
2024-02-08T17:02:03.693Z,5.18
2024-02-08T17:07:12.209Z,5.10
2024-02-08T17:12:29.323Z,5.18
2024-02-08T17:17:39.375Z,5.14
2024-02-08T17:22:50.813Z,5.14
2024-02-08T17:28:01.630Z,5.03
2024-02-08T17:33:03.634Z,5.02
2024-02-08T17:38:05.325Z,5.10
2024-02-08T17:43:18.394Z,5.08
2024-02-08T17:48:21.561Z,4.99
2024-02-08T17:53:23.470Z,4.99
2024-02-08T17:58:25.698Z,4.97
2024-02-08T18:03:27.474Z,4.90
2024-02-08T18:08:29.193Z,4.92
2024-02-08T18:13:31.200Z,4.93
2024-02-08T18:18:32.875Z,5.02
2024-02-08T18:23:34.730Z,4.88
2024-02-08T18:28:36.556Z,4.79
2024-02-08T18:33:39.010Z,4.89
2024-02-08T18:38:40.921Z,4.92
2024-02-08T18:43:45.640Z,4.79
2024-02-08T18:48:54.554Z,4.94
2024-02-08T18:53:57.048Z,4.82
2024-02-08T18:59:00.731Z,4.95
2024-02-08T19:04:04.814Z,4.96
2024-02-08T19:09:08.352Z,4.91
2024-02-08T19:14:10.007Z,4.98
2024-02-08T19:19:12.448Z,4.93
2024-02-08T19:24:18.670Z,4.98
2024-02-08T19:29:25.469Z,4.99
2024-02-08T19:34:30.362Z,4.79
2024-02-08T19:39:32.090Z,4.82
2024-02-08T19:44:36.353Z,4.77
2024-02-08T19:49:40.515Z,4.87
2024-02-08T19:54:43.223Z,4.75
2024-02-08T19:59:49.919Z,4.72
2024-02-08T20:05:01.839Z,4.89
2024-02-08T20:10:13.022Z,4.73
2024-02-08T20:15:18.672Z,4.63
2024-02-08T20:20:21.002Z,4.68
2024-02-08T20:25:28.635Z,4.81
2024-02-08T20:30:34.321Z,4.57
2024-02-08T20:35:36.064Z,4.53
2024-02-08T20:40:37.689Z,4.60
2024-02-08T20:45:40.042Z,4.53
2024-02-08T20:50:42.137Z,4.52
2024-02-08T20:55:45.719Z,4.47
2024-02-08T21:00:52.733Z,4.55
2024-02-08T21:05:56.171Z,4.72
2024-02-08T21:10:59.708Z,4.85
2024-02-08T21:16:01.681Z,4.86
2024-02-08T21:21:04.471Z,4.65
2024-02-08T21:26:10.820Z,4.89
2024-02-08T21:31:13.843Z,4.93
2024-02-08T21:36:16.899Z,4.93
2024-02-08T21:41:18.894Z,4.94
2024-02-08T21:46:22.717Z,4.82
2024-02-08T21:51:26.607Z,4.97
2024-02-08T21:56:28.238Z,4.96
2024-02-08T22:01:36.762Z,4.88
2024-02-08T22:06:39.248Z,5.00
2024-02-08T22:11:48.761Z,5.11
2024-02-08T22:16:52.748Z,4.85
2024-02-08T22:21:54.469Z,5.11
2024-02-08T22:26:57.691Z,5.16
2024-02-08T22:31:59.346Z,5.25
2024-02-08T22:37:03.219Z,5.22
2024-02-08T22:42:07.176Z,5.18
2024-02-08T22:47:08.893Z,5.22
2024-02-08T22:52:11.692Z,5.31
2024-02-08T22:57:13.413Z,5.21
2024-02-08T23:02:17.633Z,5.26
2024-02-08T23:07:20.100Z,5.39
2024-02-08T23:12:22.527Z,5.36
2024-02-08T23:17:24.610Z,5.52
2024-02-08T23:22:27.308Z,5.49
2024-02-08T23:27:29.468Z,5.48
2024-02-08T23:32:34.368Z,5.45
2024-02-08T23:37:38.292Z,5.51
2024-02-08T23:42:41.169Z,5.52
2024-02-08T23:47:44.420Z,5.59
2024-02-08T23:52:46.933Z,5.58
2024-02-08T23:57:48.675Z,5.67
